sensor_id;sensor_type;location;lat;lon;timestamp;pressure;altitude;pressure_sealevel;temperature;humidity
57821;BME280;43649;49.474;8.466;2022-07-12T00:02:20;101090.75;;;20.01;63.80
57821;BME280;43649;49.474;8.466;2022-07-12T00:04:46;101096.03;;;20.02;63.79
57821;BME280;43649;49.474;8.466;2022-07-12T00:07:11;101096.91;;;20.03;64.02
57821;BME280;43649;49.474;8.466;2022-07-12T00:09:37;101080.69;;;19.86;64.35
57821;BME280;43649;49.474;8.466;2022-07-12T00:12:06;101093.41;;;19.94;64.57
57821;BME280;43649;49.474;8.466;2022-07-12T00:14:32;101095.31;;;19.93;64.38
57821;BME280;43649;49.474;8.466;2022-07-12T00:16:58;101072.88;;;19.60;65.12
57821;BME280;43649;49.474;8.466;2022-07-12T00:19:23;101059.78;;;19.55;65.17
57821;BME280;43649;49.474;8.466;2022-07-12T00:21:49;101084.63;;;19.84;64.68
57821;BME280;43649;49.474;8.466;2022-07-12T00:24:14;101089.81;;;19.78;64.66
57821;BME280;43649;49.474;8.466;2022-07-12T00:26:42;101091.19;;;19.59;65.47
57821;BME280;43649;49.474;8.466;2022-07-12T00:29:07;101096.19;;;19.71;65.23
57821;BME280;43649;49.474;8.466;2022-07-12T00:31:34;101090.16;;;19.75;64.99
57821;BME280;43649;49.474;8.466;2022-07-12T00:33:59;101092.19;;;19.82;64.93
57821;BME280;43649;49.474;8.466;2022-07-12T00:36:25;101090.44;;;19.66;65.48
57821;BME280;43649;49.474;8.466;2022-07-12T00:38:50;101084.31;;;19.63;65.43
57821;BME280;43649;49.474;8.466;2022-07-12T00:41:16;101088.25;;;19.61;65.50
57821;BME280;43649;49.474;8.466;2022-07-12T00:43:41;101078.34;;;19.60;65.27
57821;BME280;43649;49.474;8.466;2022-07-12T00:46:07;101079.78;;;19.71;65.10
57821;BME280;43649;49.474;8.466;2022-07-12T00:48:35;101073.13;;;19.35;65.77
57821;BME280;43649;49.474;8.466;2022-07-12T00:51:01;101084.84;;;19.44;65.69
57821;BME280;43649;49.474;8.466;2022-07-12T00:53:26;101083.06;;;19.51;65.45
57821;BME280;43649;49.474;8.466;2022-07-12T00:55:53;101088.53;;;19.51;65.69
57821;BME280;43649;49.474;8.466;2022-07-12T00:58:19;101076.53;;;19.52;65.00
57821;BME280;43649;49.474;8.466;2022-07-12T01:00:45;101081.81;;;19.54;64.89
57821;BME280;43649;49.474;8.466;2022-07-12T01:03:10;101076.72;;;19.51;64.85
57821;BME280;43649;49.474;8.466;2022-07-12T01:05:37;101076.53;;;19.52;64.59
57821;BME280;43649;49.474;8.466;2022-07-12T01:08:04;101077.13;;;19.62;64.42
57821;BME280;43649;49.474;8.466;2022-07-12T01:10:30;101082.88;;;19.53;64.85
57821;BME280;43649;49.474;8.466;2022-07-12T01:12:57;101067.97;;;19.55;64.34
57821;BME280;43649;49.474;8.466;2022-07-12T01:15:22;101071.94;;;19.53;64.63
57821;BME280;43649;49.474;8.466;2022-07-12T01:17:48;101074.56;;;19.46;64.87
57821;BME280;43649;49.474;8.466;2022-07-12T01:20:13;101072.59;;;19.55;64.62
57821;BME280;43649;49.474;8.466;2022-07-12T01:22:46;101080.72;;;19.48;64.84
57821;BME280;43649;49.474;8.466;2022-07-12T01:25:15;101078.16;;;19.47;64.84
57821;BME280;43649;49.474;8.466;2022-07-12T01:27:40;101072.56;;;19.40;64.66
57821;BME280;43649;49.474;8.466;2022-07-12T01:30:06;101087.63;;;19.36;64.88
57821;BME280;43649;49.474;8.466;2022-07-12T01:32:33;101086.88;;;19.27;65.16
57821;BME280;43649;49.474;8.466;2022-07-12T01:35:00;101080.09;;;19.23;65.45
57821;BME280;43649;49.474;8.466;2022-07-12T01:37:29;101086.38;;;19.23;65.47
57821;BME280;43649;49.474;8.466;2022-07-12T01:39:58;101080.22;;;19.06;65.95
57821;BME280;43649;49.474;8.466;2022-07-12T01:42:25;101084.09;;;19.12;65.78
57821;BME280;43649;49.474;8.466;2022-07-12T01:44:52;101089.94;;;19.09;66.14
57821;BME280;43649;49.474;8.466;2022-07-12T01:47:19;101083.59;;;19.08;66.54
57821;BME280;43649;49.474;8.466;2022-07-12T01:49:45;101082.56;;;19.09;66.46
57821;BME280;43649;49.474;8.466;2022-07-12T01:52:11;101082.41;;;19.11;66.46
57821;BME280;43649;49.474;8.466;2022-07-12T01:54:37;101071.75;;;19.16;66.31
57821;BME280;43649;49.474;8.466;2022-07-12T01:57:04;101072.81;;;19.15;66.17
57821;BME280;43649;49.474;8.466;2022-07-12T01:59:30;101079.47;;;19.13;66.41
57821;BME280;43649;49.474;8.466;2022-07-12T02:01:56;101078.63;;;19.12;66.22
57821;BME280;43649;49.474;8.466;2022-07-12T02:04:22;101086.09;;;19.18;66.32
57821;BME280;43649;49.474;8.466;2022-07-12T02:06:48;101081.88;;;18.92;67.25
57821;BME280;43649;49.474;8.466;2022-07-12T02:09:14;101083.25;;;18.88;67.62
57821;BME280;43649;49.474;8.466;2022-07-12T02:11:40;101076.59;;;18.91;67.64
57821;BME280;43649;49.474;8.466;2022-07-12T02:14:07;101078.41;;;18.99;67.38
57821;BME280;43649;49.474;8.466;2022-07-12T02:16:33;101081.13;;;18.99;67.57
57821;BME280;43649;49.474;8.466;2022-07-12T02:18:59;101079.88;;;18.86;67.93
57821;BME280;43649;49.474;8.466;2022-07-12T02:21:25;101081.69;;;18.94;67.88
57821;BME280;43649;49.474;8.466;2022-07-12T02:23:50;101086.16;;;18.87;68.15
57821;BME280;43649;49.474;8.466;2022-07-12T02:26:16;101078.72;;;18.72;68.97
57821;BME280;43649;49.474;8.466;2022-07-12T02:28:41;101074.41;;;18.78;69.06
57821;BME280;43649;49.474;8.466;2022-07-12T02:31:08;101081.63;;;18.71;69.48
57821;BME280;43649;49.474;8.466;2022-07-12T02:33:34;101080.97;;;18.69;69.56
57821;BME280;43649;49.474;8.466;2022-07-12T02:35:59;101087.81;;;18.65;69.92
57821;BME280;43649;49.474;8.466;2022-07-12T02:38:25;101081.50;;;18.64;70.07
57821;BME280;43649;49.474;8.466;2022-07-12T02:40:50;101080.63;;;18.64;70.11
57821;BME280;43649;49.474;8.466;2022-07-12T02:43:16;101084.41;;;18.63;70.42
57821;BME280;43649;49.474;8.466;2022-07-12T02:45:41;101079.31;;;18.60;70.51
57821;BME280;43649;49.474;8.466;2022-07-12T02:48:08;101095.38;;;18.54;70.87
57821;BME280;43649;49.474;8.466;2022-07-12T02:50:33;101096.81;;;18.42;71.67
57821;BME280;43649;49.474;8.466;2022-07-12T02:52:59;101100.16;;;18.52;71.62
57821;BME280;43649;49.474;8.466;2022-07-12T02:55:24;101103.31;;;18.33;72.32
57821;BME280;43649;49.474;8.466;2022-07-12T02:57:50;101098.88;;;18.40;72.67
57821;BME280;43649;49.474;8.466;2022-07-12T03:00:15;101101.25;;;18.43;72.74
57821;BME280;43649;49.474;8.466;2022-07-12T03:02:41;101104.06;;;18.18;73.72
57821;BME280;43649;49.474;8.466;2022-07-12T03:05:08;101102.03;;;18.20;73.98
57821;BME280;43649;49.474;8.466;2022-07-12T03:07:34;101103.41;;;18.16;73.92
57821;BME280;43649;49.474;8.466;2022-07-12T03:09:59;101107.78;;;18.34;73.58
57821;BME280;43649;49.474;8.466;2022-07-12T03:12:24;101109.59;;;17.94;74.90
57821;BME280;43649;49.474;8.466;2022-07-12T03:14:50;101108.25;;;17.81;75.34
57821;BME280;43649;49.474;8.466;2022-07-12T03:17:15;101116.25;;;17.83;75.46
57821;BME280;43649;49.474;8.466;2022-07-12T03:19:41;101109.28;;;17.80;75.65
57821;BME280;43649;49.474;8.466;2022-07-12T03:22:08;101119.53;;;17.62;76.57
57821;BME280;43649;49.474;8.466;2022-07-12T03:24:33;101119.69;;;17.68;76.36
57821;BME280;43649;49.474;8.466;2022-07-12T03:26:59;101102.13;;;17.63;76.50
57821;BME280;43649;49.474;8.466;2022-07-12T03:29:24;101111.84;;;17.74;76.15
57821;BME280;43649;49.474;8.466;2022-07-12T03:31:49;101115.06;;;17.77;75.82
57821;BME280;43649;49.474;8.466;2022-07-12T03:34:15;101116.59;;;17.80;76.07
57821;BME280;43649;49.474;8.466;2022-07-12T03:36:40;101116.94;;;17.77;75.82
57821;BME280;43649;49.474;8.466;2022-07-12T03:39:07;101123.28;;;17.61;76.96
57821;BME280;43649;49.474;8.466;2022-07-12T03:41:32;101132.44;;;17.76;76.53
57821;BME280;43649;49.474;8.466;2022-07-12T03:43:58;101126.31;;;17.74;76.49
57821;BME280;43649;49.474;8.466;2022-07-12T03:46:23;101138.59;;;17.70;76.38
57821;BME280;43649;49.474;8.466;2022-07-12T03:48:49;101140.16;;;17.64;76.87
57821;BME280;43649;49.474;8.466;2022-07-12T03:51:14;101139.28;;;17.64;76.45
57821;BME280;43649;49.474;8.466;2022-07-12T03:53:40;101134.69;;;17.64;76.32
57821;BME280;43649;49.474;8.466;2022-07-12T03:56:07;101138.94;;;17.75;76.14
57821;BME280;43649;49.474;8.466;2022-07-12T03:58:32;101143.00;;;17.63;76.18
57821;BME280;43649;49.474;8.466;2022-07-12T04:00:58;101149.50;;;17.70;75.79
57821;BME280;43649;49.474;8.466;2022-07-12T04:03:23;101142.00;;;17.64;75.92
57821;BME280;43649;49.474;8.466;2022-07-12T04:05:49;101140.97;;;17.73;75.37
57821;BME280;43649;49.474;8.466;2022-07-12T04:08:14;101137.72;;;17.78;75.25
57821;BME280;43649;49.474;8.466;2022-07-12T04:10:39;101137.41;;;17.56;75.77
57821;BME280;43649;49.474;8.466;2022-07-12T04:13:06;101126.19;;;17.67;75.50
57821;BME280;43649;49.474;8.466;2022-07-12T04:15:32;101145.91;;;17.78;75.14
57821;BME280;43649;49.474;8.466;2022-07-12T04:17:57;101129.72;;;17.84;74.72
57821;BME280;43649;49.474;8.466;2022-07-12T04:20:23;101135.00;;;17.94;74.20
57821;BME280;43649;49.474;8.466;2022-07-12T04:22:48;101127.69;;;17.95;74.14
57821;BME280;43649;49.474;8.466;2022-07-12T04:25:14;101132.97;;;17.96;74.34
57821;BME280;43649;49.474;8.466;2022-07-12T04:27:39;101126.97;;;18.01;73.98
57821;BME280;43649;49.474;8.466;2022-07-12T04:30:07;101132.75;;;18.06;74.09
57821;BME280;43649;49.474;8.466;2022-07-12T04:32:33;101130.72;;;18.08;73.60
57821;BME280;43649;49.474;8.466;2022-07-12T04:34:58;101135.28;;;18.08;73.32
57821;BME280;43649;49.474;8.466;2022-07-12T04:37:24;101129.31;;;18.12;73.04
57821;BME280;43649;49.474;8.466;2022-07-12T04:39:49;101123.91;;;18.04;73.33
57821;BME280;43649;49.474;8.466;2022-07-12T04:42:15;101131.22;;;18.03;73.30
57821;BME280;43649;49.474;8.466;2022-07-12T04:44:40;101135.81;;;18.03;73.65
57821;BME280;43649;49.474;8.466;2022-07-12T04:47:07;101132.56;;;18.16;73.06
57821;BME280;43649;49.474;8.466;2022-07-12T04:49:32;101135.75;;;18.28;72.45
57821;BME280;43649;49.474;8.466;2022-07-12T04:51:58;101114.97;;;18.27;72.14
57821;BME280;43649;49.474;8.466;2022-07-12T04:54:23;101142.19;;;18.35;71.57
57821;BME280;43649;49.474;8.466;2022-07-12T04:56:49;101132.88;;;18.21;72.10
57821;BME280;43649;49.474;8.466;2022-07-12T04:59:14;101135.94;;;18.18;72.43
57821;BME280;43649;49.474;8.466;2022-07-12T05:01:40;101139.56;;;18.10;73.05
57821;BME280;43649;49.474;8.466;2022-07-12T05:04:07;101135.41;;;18.31;72.13
57821;BME280;43649;49.474;8.466;2022-07-12T05:06:32;101133.13;;;18.43;71.54
57821;BME280;43649;49.474;8.466;2022-07-12T05:08:57;101141.94;;;18.53;71.54
57821;BME280;43649;49.474;8.466;2022-07-12T05:11:23;101144.81;;;18.60;71.61
57821;BME280;43649;49.474;8.466;2022-07-12T05:13:48;101141.03;;;18.61;71.28
57821;BME280;43649;49.474;8.466;2022-07-12T05:16:14;101148.75;;;18.57;71.54
57821;BME280;43649;49.474;8.466;2022-07-12T05:18:39;101147.84;;;18.65;71.28
57821;BME280;43649;49.474;8.466;2022-07-12T05:21:06;101137.28;;;18.70;70.87
57821;BME280;43649;49.474;8.466;2022-07-12T05:23:32;101150.69;;;18.80;70.85
57821;BME280;43649;49.474;8.466;2022-07-12T05:25:57;101154.97;;;18.74;70.52
57821;BME280;43649;49.474;8.466;2022-07-12T05:28:23;101168.41;;;18.84;70.43
57821;BME280;43649;49.474;8.466;2022-07-12T05:30:48;101165.88;;;18.82;70.05
57821;BME280;43649;49.474;8.466;2022-07-12T05:33:13;101170.38;;;18.67;70.83
57821;BME280;43649;49.474;8.466;2022-07-12T05:35:39;101174.94;;;18.74;70.45
57821;BME280;43649;49.474;8.466;2022-07-12T05:38:06;101171.88;;;18.78;70.48
57821;BME280;43649;49.474;8.466;2022-07-12T05:40:31;101175.78;;;18.75;70.56
57821;BME280;43649;49.474;8.466;2022-07-12T05:42:57;101173.00;;;18.83;70.15
57821;BME280;43649;49.474;8.466;2022-07-12T05:45:22;101177.84;;;18.73;70.67
57821;BME280;43649;49.474;8.466;2022-07-12T05:47:48;101184.91;;;18.99;69.94
57821;BME280;43649;49.474;8.466;2022-07-12T05:50:14;101185.91;;;19.06;69.75
57821;BME280;43649;49.474;8.466;2022-07-12T05:52:39;101187.47;;;19.00;69.71
57821;BME280;43649;49.474;8.466;2022-07-12T05:55:06;101189.78;;;19.12;69.52
57821;BME280;43649;49.474;8.466;2022-07-12T05:57:32;101203.50;;;19.26;69.47
57821;BME280;43649;49.474;8.466;2022-07-12T05:59:57;101205.88;;;19.30;69.66
57821;BME280;43649;49.474;8.466;2022-07-12T06:02:23;101208.59;;;19.30;69.05
57821;BME280;43649;49.474;8.466;2022-07-12T06:04:48;101203.88;;;19.23;69.52
57821;BME280;43649;49.474;8.466;2022-07-12T06:07:14;101216.31;;;19.26;68.96
57821;BME280;43649;49.474;8.466;2022-07-12T06:09:40;101213.63;;;19.18;69.34
57821;BME280;43649;49.474;8.466;2022-07-12T06:12:08;101222.16;;;19.23;69.17
57821;BME280;43649;49.474;8.466;2022-07-12T06:14:33;101218.03;;;19.27;68.86
57821;BME280;43649;49.474;8.466;2022-07-12T06:16:59;101206.06;;;19.28;68.80
57821;BME280;43649;49.474;8.466;2022-07-12T06:19:24;101215.84;;;19.45;68.24
57821;BME280;43649;49.474;8.466;2022-07-12T06:21:50;101220.75;;;19.50;68.08
57821;BME280;43649;49.474;8.466;2022-07-12T06:24:15;101218.69;;;19.52;67.97
57821;BME280;43649;49.474;8.466;2022-07-12T06:26:41;101222.84;;;19.48;68.11
57821;BME280;43649;49.474;8.466;2022-07-12T06:29:07;101221.56;;;19.59;67.46
57821;BME280;43649;49.474;8.466;2022-07-12T06:31:34;101224.03;;;19.69;66.98
57821;BME280;43649;49.474;8.466;2022-07-12T06:33:59;101204.47;;;19.57;66.96
57821;BME280;43649;49.474;8.466;2022-07-12T06:36:25;101216.88;;;19.68;67.04
57821;BME280;43649;49.474;8.466;2022-07-12T06:38:50;101232.88;;;19.79;66.83
57821;BME280;43649;49.474;8.466;2022-07-12T06:41:16;101237.78;;;19.84;67.05
57821;BME280;43649;49.474;8.466;2022-07-12T06:43:41;101235.28;;;19.97;66.23
57821;BME280;43649;49.474;8.466;2022-07-12T06:46:09;101241.94;;;19.94;66.38
57821;BME280;43649;49.474;8.466;2022-07-12T06:48:34;101243.88;;;20.09;66.89
57821;BME280;43649;49.474;8.466;2022-07-12T06:51:00;101227.53;;;20.01;66.17
57821;BME280;43649;49.474;8.466;2022-07-12T06:53:25;101242.47;;;20.13;66.04
57821;BME280;43649;49.474;8.466;2022-07-12T06:55:50;101239.84;;;20.20;66.14
57821;BME280;43649;49.474;8.466;2022-07-12T06:58:16;101244.38;;;20.27;65.52
57821;BME280;43649;49.474;8.466;2022-07-12T07:00:42;101239.19;;;20.32;65.15
57821;BME280;43649;49.474;8.466;2022-07-12T07:03:08;101245.72;;;20.46;65.66
57821;BME280;43649;49.474;8.466;2022-07-12T07:05:34;101255.44;;;20.49;65.72
57821;BME280;43649;49.474;8.466;2022-07-12T07:07:59;101257.88;;;20.59;65.24
57821;BME280;43649;49.474;8.466;2022-07-12T07:10:25;101249.69;;;20.74;63.91
57821;BME280;43649;49.474;8.466;2022-07-12T07:12:50;101253.19;;;20.67;64.20
57821;BME280;43649;49.474;8.466;2022-07-12T07:15:16;101257.47;;;20.70;64.24
57821;BME280;43649;49.474;8.466;2022-07-12T07:17:41;101247.13;;;20.57;64.31
57821;BME280;43649;49.474;8.466;2022-07-12T07:20:10;101254.72;;;20.70;64.62
57821;BME280;43649;49.474;8.466;2022-07-12T07:22:35;101260.34;;;20.83;64.26
57821;BME280;43649;49.474;8.466;2022-07-12T07:25:03;101257.91;;;20.89;63.89
57821;BME280;43649;49.474;8.466;2022-07-12T07:27:28;101238.25;;;20.85;63.46
57821;BME280;43649;49.474;8.466;2022-07-12T07:29:54;101245.59;;;20.99;63.49
57821;BME280;43649;49.474;8.466;2022-07-12T07:32:19;101246.81;;;20.97;62.94
57821;BME280;43649;49.474;8.466;2022-07-12T07:34:45;101240.03;;;21.08;62.72
